Feng-yuan, Taiwan
Current Conditions -  °F | °C
As of 5:30 AM on Wednesday 22 Oct 2014 (Local Time) from RCMQ Reporting Station
Broken Clouds Broken Clouds  
Wind Chill: 72°   Ceiling: 20000
Heat Index: 72°   Visibility: 4mi
Dew Point: 64°   Wind: 5mph
Humidity: 78%   Direction: 360°N
Pressure: 29.94"   Gusts: NA
Location:  24.25°N, 120.72°E
Report Text: RCMQ 212130Z 36004KT 7000 FEW010 SCT030 BKN200 22/18 Q1014 NOSIG RMK A2996
Loading
Personal Weather Stations






























Interactive Weather Map
Tropical Storm Tracking
New forecast layout! Learn more

10-Day Weather Forecast

Advertisements
Track Severe Weather on mobile